If you wish to contribute or participate in the discussions about articles you are invited to join SKYbrary as a registered user

 Actions

Leeds Bradford

From SKYbrary Wiki

EGNM
Airport
ICAO: EGNM
Summary
Name Leeds Bradford
Region Europe
Territory United Kingdom GB.gif
Location Yeadon, West Yorkshire, England
Serving Leeds and Bradford
Coordinates 53° 51' 58.05" N, 1° 39' 27.64" W
Runways
Designator Length Width Surface ROPS
14/32 2250 m7,381.89 ft
46 m150.919 ft
CON yes/yes


METAR
Observation EGNM 181320Z 22008KT 190V260 9999 SCT014 SCT028 11/07 Q0994
Station Leeds And Bradford
Date/Time 18 October 2019 13:20:00
Wind direction 220°
Wind speed 08 kts
Lowest cloud amount scattered clouds
Temperature 11°C
Dew point 7°C
Humidity 76%
QNH 994 hPa
Weather condition n/a

CFIT
Tag(s) Runway Visual Perspective

Leeds Bradford

ICAO: EGNM IATA: LBA

Description

Domestic and international airport serving the cities of Leeds and Bradford and the rest of West Yorkshire.

Climatology

Temperate Marine climate/Oceanic climate (Köppen climate classification Cfb). Moderately cool summer and comparatively warm winter with a temperature range of only 14°C57.2 °F
287.15 K
516.87 °R
. Prevailing south-westerly winds from the Atlantic Ocean.

Maps

Terrain

Loading map...

Airport Layout

Loading map...